createdAt,value
2018-10-16T00:01:16.908Z,12.00
2018-10-16T00:03:45.704Z,11.80
2018-10-16T00:06:14.529Z,11.90
2018-10-16T00:08:43.295Z,12.00
2018-10-16T00:11:12.458Z,12.20
2018-10-16T00:13:43.302Z,12.30
2018-10-16T00:16:13.083Z,12.30
2018-10-16T00:18:42.611Z,12.30
2018-10-16T00:21:12.185Z,12.20
2018-10-16T00:23:40.974Z,12.20
2018-10-16T00:26:09.778Z,12.20
2018-10-16T00:28:38.942Z,12.10
2018-10-16T00:31:07.729Z,12.20
2018-10-16T00:33:36.523Z,12.00
2018-10-16T00:36:06.333Z,11.90
2018-10-16T00:38:35.091Z,11.80
2018-10-16T00:41:03.883Z,11.90
2018-10-16T00:43:32.645Z,11.80
2018-10-16T00:46:01.491Z,11.90
2018-10-16T00:48:30.285Z,11.90
2018-10-16T00:50:59.819Z,12.00
2018-10-16T00:53:28.674Z,11.90
2018-10-16T00:55:57.476Z,12.00
2018-10-16T00:58:26.983Z,12.00
2018-10-16T01:00:55.774Z,12.00
2018-10-16T01:03:24.541Z,12.00
2018-10-16T01:05:53.327Z,12.00
2018-10-16T01:08:22.134Z,12.00
2018-10-16T01:10:50.976Z,12.10
2018-10-16T01:13:20.125Z,12.00
2018-10-16T01:15:50.549Z,11.80
2018-10-16T01:18:19.682Z,11.70
2018-10-16T01:20:49.054Z,11.70
2018-10-16T01:23:17.864Z,11.70
2018-10-16T01:25:46.986Z,11.70
2018-10-16T01:28:15.793Z,11.60
2018-10-16T01:30:44.577Z,11.60
2018-10-16T01:33:13.379Z,11.50
2018-10-16T01:35:42.182Z,11.50
2018-10-16T01:38:10.957Z,11.40
2018-10-16T01:40:39.770Z,11.40
2018-10-16T01:43:08.601Z,11.30
2018-10-16T01:45:38.670Z,11.20
2018-10-16T01:48:07.482Z,11.20
2018-10-16T01:50:36.322Z,11.20
2018-10-16T01:53:05.158Z,11.10
2018-10-16T01:55:33.968Z,11.10
2018-10-16T01:58:02.797Z,11.00
2018-10-16T02:00:31.610Z,11.00
2018-10-16T02:03:00.402Z,11.00
2018-10-16T02:05:29.260Z,11.00
2018-10-16T02:07:58.073Z,11.00
2018-10-16T02:10:26.871Z,11.10
2018-10-16T02:12:55.648Z,11.10
2018-10-16T02:15:24.453Z,11.10
2018-10-16T02:17:53.513Z,11.00
2018-10-16T02:20:22.278Z,10.80
2018-10-16T02:22:51.097Z,10.70
2018-10-16T02:25:24.213Z,10.70
2018-10-16T02:27:55.350Z,10.70
2018-10-16T02:30:33.492Z,10.70
2018-10-16T02:33:09.261Z,10.70
2018-10-16T02:35:45.338Z,10.70
2018-10-16T02:38:30.363Z,10.70
2018-10-16T02:40:59.150Z,10.70
2018-10-16T02:43:28.062Z,10.70
2018-10-16T02:45:56.875Z,10.60
2018-10-16T02:48:25.659Z,10.60
2018-10-16T02:50:54.560Z,10.50
2018-10-16T02:53:23.374Z,10.50
2018-10-16T02:55:52.831Z,10.40
2018-10-16T02:58:21.612Z,10.40
2018-10-16T03:00:51.145Z,10.40
2018-10-16T03:03:19.909Z,10.30
2018-10-16T03:05:48.745Z,10.30
2018-10-16T03:08:17.535Z,10.30
2018-10-16T03:10:47.929Z,10.40
2018-10-16T03:13:16.779Z,10.30
2018-10-16T03:15:45.584Z,10.20
2018-10-16T03:18:14.413Z,10.10
2018-10-16T03:20:43.309Z,10.10
2018-10-16T03:23:12.058Z,10.10
2018-10-16T03:25:40.817Z,10.10
2018-10-16T03:28:11.497Z,10.10
2018-10-16T03:30:40.413Z,10.10
2018-10-16T03:33:09.269Z,10.10
2018-10-16T03:36:57.179Z,10.10
2018-10-16T03:39:25.977Z,10.10
2018-10-16T03:41:54.818Z,10.20
2018-10-16T03:44:23.641Z,10.20
2018-10-16T03:46:52.452Z,10.20
2018-10-16T03:49:21.247Z,10.20
2018-10-16T03:51:50.092Z,10.20
2018-10-16T03:54:18.946Z,10.10
2018-10-16T03:56:47.827Z,10.00
2018-10-16T03:59:16.675Z,9.90
2018-10-16T04:01:45.433Z,9.90
2018-10-16T04:04:14.880Z,9.90
2018-10-16T04:06:43.715Z,9.70
2018-10-16T04:09:12.508Z,9.70
2018-10-16T04:11:41.290Z,9.70
2018-10-16T04:14:10.160Z,9.70
2018-10-16T04:16:39.178Z,9.70
2018-10-16T04:19:07.969Z,9.70
2018-10-16T04:21:46.909Z,9.60
2018-10-16T04:24:16.727Z,9.70
2018-10-16T04:26:45.562Z,9.60
2018-10-16T04:29:14.406Z,9.70
2018-10-16T04:31:43.662Z,9.80
2018-10-16T04:34:12.482Z,9.80
2018-10-16T04:36:41.787Z,9.90
2018-10-16T04:39:12.538Z,9.90
2018-10-16T04:41:41.773Z,9.90
2018-10-16T04:44:10.504Z,9.90
2018-10-16T04:46:39.352Z,9.90
2018-10-16T04:49:08.504Z,10.00
2018-10-16T04:51:37.444Z,9.90
2018-10-16T04:54:06.642Z,9.90
2018-10-16T04:56:35.660Z,9.90
2018-10-16T04:59:04.485Z,9.90
2018-10-16T05:01:33.335Z,10.10
2018-10-16T05:04:02.215Z,10.20
2018-10-16T05:06:31.270Z,10.20
2018-10-16T05:09:01.580Z,10.20
2018-10-16T05:11:30.557Z,10.30
2018-10-16T05:13:59.443Z,10.40
2018-10-16T05:16:29.111Z,10.50
2018-10-16T05:18:58.070Z,10.60
2018-10-16T05:21:27.842Z,10.70
2018-10-16T05:23:56.659Z,10.70
2018-10-16T05:26:26.208Z,10.80
2018-10-16T05:28:55.746Z,10.80
2018-10-16T05:31:24.697Z,10.90
2018-10-16T05:33:53.417Z,11.00
2018-10-16T05:36:22.264Z,10.90
2018-10-16T05:38:52.154Z,10.90
2018-10-16T05:41:22.734Z,10.90
2018-10-16T05:43:52.327Z,10.90
2018-10-16T05:46:21.197Z,11.00
2018-10-16T05:48:50.484Z,10.80
2018-10-16T05:51:23.410Z,11.00
2018-10-16T05:53:53.377Z,11.00
2018-10-16T05:56:22.217Z,11.00
2018-10-16T05:58:51.169Z,11.10
2018-10-16T06:01:20.191Z,11.10
2018-10-16T06:03:49.465Z,11.00
2018-10-16T06:06:25.356Z,11.00
2018-10-16T06:08:55.178Z,10.90
2018-10-16T06:11:24.713Z,10.90
2018-10-16T06:13:54.975Z,10.90
2018-10-16T06:16:23.822Z,10.80
2018-10-16T06:18:52.673Z,10.90
2018-10-16T06:21:21.507Z,11.00
2018-10-16T06:23:50.754Z,11.00
2018-10-16T06:26:19.715Z,11.10
2018-10-16T06:28:48.940Z,11.20
2018-10-16T06:31:28.954Z,11.30
2018-10-16T06:33:58.828Z,11.30
2018-10-16T06:36:27.760Z,11.20
2018-10-16T06:38:56.785Z,11.20
2018-10-16T06:41:25.913Z,11.30
2018-10-16T06:43:55.210Z,11.30
2018-10-16T06:46:25.770Z,11.30
2018-10-16T06:48:55.869Z,11.30
2018-10-16T06:51:24.658Z,11.30
2018-10-16T06:53:53.823Z,11.20
2018-10-16T06:56:24.047Z,11.10
2018-10-16T06:58:54.591Z,11.20
2018-10-16T07:01:29.433Z,11.30
2018-10-16T07:03:58.296Z,11.30
2018-10-16T07:06:27.267Z,11.40
2018-10-16T07:08:58.416Z,11.40
2018-10-16T07:11:27.290Z,11.40
2018-10-16T07:13:57.309Z,11.40
2018-10-16T07:16:26.541Z,11.40
2018-10-16T07:18:55.679Z,11.40
2018-10-16T07:21:25.639Z,11.40
2018-10-16T07:24:01.458Z,11.50
2018-10-16T07:26:33.133Z,11.60
2018-10-16T07:29:02.540Z,11.70
2018-10-16T07:31:35.433Z,11.60
2018-10-16T07:34:06.357Z,11.70
2018-10-16T07:36:35.394Z,11.80
2018-10-16T07:39:05.655Z,11.60
2018-10-16T07:41:34.678Z,11.80
2018-10-16T07:44:03.543Z,11.90
2018-10-16T07:46:32.411Z,12.00
2018-10-16T07:49:01.878Z,12.00
2018-10-16T07:51:31.170Z,12.10
2018-10-16T07:54:00.205Z,12.20
2018-10-16T07:56:30.007Z,12.30
2018-10-16T07:58:59.241Z,12.50
2018-10-16T08:01:28.400Z,12.60
2018-10-16T08:04:03.957Z,12.80
2018-10-16T08:06:33.602Z,12.90
2018-10-16T08:09:02.671Z,13.10
2018-10-16T08:11:32.231Z,13.10
2018-10-16T08:14:01.161Z,13.20
2018-10-16T08:16:30.044Z,13.30
2018-10-16T08:18:58.948Z,13.30
2018-10-16T08:21:31.153Z,13.50
2018-10-16T08:24:00.013Z,13.60
2018-10-16T08:26:28.964Z,13.70
2018-10-16T08:28:59.171Z,13.90
2018-10-16T08:31:28.157Z,13.90
2018-10-16T08:33:57.040Z,14.10
2018-10-16T08:36:38.678Z,14.30
2018-10-16T08:39:15.259Z,14.40
2018-10-16T08:43:59.655Z,14.50
2018-10-16T08:46:40.249Z,14.60
2018-10-16T08:49:20.164Z,14.80
2018-10-16T08:51:54.358Z,14.80
2018-10-16T08:54:24.159Z,15.00
2018-10-16T08:56:54.105Z,15.30
2018-10-16T08:59:23.167Z,15.60
2018-10-16T09:01:53.645Z,16.10
2018-10-16T09:04:22.621Z,16.70
2018-10-16T09:06:55.570Z,17.10
2018-10-16T09:09:25.035Z,17.50
2018-10-16T09:11:54.016Z,18.10
2018-10-16T09:14:23.429Z,18.60
2018-10-16T09:16:54.408Z,19.00
2018-10-16T09:19:23.236Z,19.10
2018-10-16T09:21:53.203Z,19.30
2018-10-16T09:24:23.049Z,19.90
2018-10-16T09:26:52.230Z,20.90
2018-10-16T09:29:22.286Z,21.90
2018-10-16T09:31:51.627Z,22.40
2018-10-16T09:34:21.380Z,22.10
2018-10-16T09:36:50.259Z,21.70
2018-10-16T09:39:19.095Z,21.70
2018-10-16T09:41:48.442Z,21.60
2018-10-16T09:44:20.225Z,21.70
2018-10-16T09:46:49.298Z,21.50
2018-10-16T09:49:18.210Z,21.40
2018-10-16T09:51:47.401Z,21.40
2018-10-16T09:54:16.235Z,21.10
2018-10-16T09:56:45.724Z,20.80
2018-10-16T09:59:14.561Z,20.70
2018-10-16T10:01:47.250Z,20.60
2018-10-16T10:04:16.263Z,20.50
2018-10-16T10:06:45.503Z,20.30
2018-10-16T10:09:16.160Z,20.20
2018-10-16T10:11:45.961Z,19.90
2018-10-16T10:14:14.864Z,19.80
2018-10-16T10:16:44.617Z,19.60
2018-10-16T10:19:14.963Z,19.50
2018-10-16T10:21:44.938Z,19.50
2018-10-16T10:24:16.391Z,19.60
2018-10-16T10:26:45.279Z,19.50
2018-10-16T10:29:17.683Z,19.50
2018-10-16T10:31:47.700Z,19.50
2018-10-16T10:34:22.806Z,19.50
2018-10-16T10:36:51.902Z,19.50
2018-10-16T10:39:21.538Z,19.50
2018-10-16T10:41:51.632Z,19.50
2018-10-16T10:44:20.829Z,19.50
2018-10-16T10:46:50.286Z,19.60
2018-10-16T10:49:20.335Z,19.60
2018-10-16T10:51:49.173Z,19.50
2018-10-16T10:54:20.540Z,19.50
2018-10-16T10:56:49.584Z,19.50
2018-10-16T10:59:18.386Z,19.50
2018-10-16T11:01:49.289Z,19.50
2018-10-16T11:04:18.996Z,19.50
2018-10-16T11:06:52.754Z,19.50
2018-10-16T11:09:21.725Z,19.50
2018-10-16T11:12:03.822Z,19.60
2018-10-16T11:14:33.126Z,19.60
2018-10-16T11:17:18.334Z,19.60
2018-10-16T11:19:47.967Z,19.50
2018-10-16T11:22:25.268Z,19.60
2018-10-16T11:24:55.088Z,19.60
2018-10-16T11:27:25.368Z,19.70
2018-10-16T11:29:54.697Z,19.70
2018-10-16T11:32:28.054Z,19.70
2018-10-16T11:34:57.667Z,19.80
2018-10-16T11:37:31.765Z,19.80
2018-10-16T11:40:03.246Z,20.00
2018-10-16T11:42:33.706Z,20.20
2018-10-16T11:45:03.506Z,20.40
2018-10-16T11:47:36.009Z,20.50
2018-10-16T11:50:16.735Z,20.50
2018-10-16T11:53:05.428Z,20.50
2018-10-16T11:55:47.190Z,20.20
2018-10-16T11:58:18.481Z,19.90
2018-10-16T12:07:57.874Z,19.90
2018-10-16T12:23:46.397Z,19.30
2018-10-16T12:26:15.954Z,19.20
2018-10-16T12:28:45.638Z,19.10
2018-10-16T12:31:15.129Z,19.00
2018-10-16T12:33:44.311Z,19.00
2018-10-16T12:36:13.835Z,18.80
2018-10-16T12:38:43.582Z,18.80
2018-10-16T12:41:13.607Z,18.70
2018-10-16T12:43:42.687Z,18.70
2018-10-16T12:46:12.710Z,18.60
2018-10-16T12:48:42.576Z,18.60
2018-10-16T12:51:11.789Z,18.50
2018-10-16T12:53:40.754Z,18.50
2018-10-16T12:56:12.045Z,18.40
2018-10-16T12:58:47.785Z,18.30
2018-10-16T13:01:17.089Z,18.30
2018-10-16T13:03:46.482Z,18.30
2018-10-16T13:12:02.236Z,18.90
2018-10-16T13:14:31.680Z,19.20
2018-10-16T13:17:01.424Z,19.20
2018-10-16T13:19:30.389Z,19.20
2018-10-16T13:22:02.858Z,19.10
2018-10-16T13:24:33.313Z,19.00
2018-10-16T13:27:03.617Z,18.80
2018-10-16T13:29:41.555Z,18.70
2018-10-16T13:32:10.462Z,18.60
2018-10-16T13:34:39.704Z,18.50
2018-10-16T13:37:09.688Z,18.60
2018-10-16T13:39:39.579Z,19.10
2018-10-16T13:42:09.450Z,20.10
2018-10-16T13:44:40.005Z,20.70
2018-10-16T13:47:08.914Z,20.50
2018-10-16T13:49:39.574Z,20.20
2018-10-16T13:52:10.465Z,19.80
2018-10-16T13:54:40.873Z,19.40
2018-10-16T13:57:11.159Z,19.10
2018-10-16T13:59:41.190Z,18.80
2018-10-16T14:02:11.673Z,18.60
2018-10-16T14:04:40.923Z,18.40
2018-10-16T14:07:11.255Z,18.30
2018-10-16T14:09:42.684Z,18.10
2018-10-16T14:12:12.403Z,18.00
2018-10-16T14:14:41.278Z,17.90
2018-10-16T14:17:10.295Z,17.80
2018-10-16T14:19:44.604Z,17.70
2018-10-16T14:22:14.170Z,17.70
2018-10-16T14:24:44.570Z,17.60
2018-10-16T14:27:16.165Z,17.60
2018-10-16T14:29:45.248Z,17.60
2018-10-16T14:32:15.408Z,17.50
2018-10-16T14:34:44.830Z,17.50
2018-10-16T14:37:13.818Z,17.50
2018-10-16T14:39:43.567Z,17.40
2018-10-16T14:42:12.525Z,17.30
2018-10-16T14:44:44.225Z,17.20
2018-10-16T14:47:14.758Z,17.20
2018-10-16T14:49:44.298Z,17.10
2018-10-16T14:52:15.602Z,17.00
2018-10-16T14:54:45.328Z,17.00
2018-10-16T14:57:19.935Z,16.90
2018-10-16T14:59:50.708Z,16.90
2018-10-16T15:02:21.290Z,16.90
2018-10-16T15:04:54.563Z,16.80
2018-10-16T15:07:24.678Z,16.70
2018-10-16T15:09:55.570Z,16.70
2018-10-16T15:12:33.982Z,16.70
2018-10-16T15:15:04.190Z,16.60
2018-10-16T15:17:37.011Z,16.40
2018-10-16T15:20:14.842Z,16.40
2018-10-16T15:22:44.668Z,16.30
2018-10-16T15:25:15.746Z,16.20
2018-10-16T15:27:47.018Z,16.20
2018-10-16T15:30:15.934Z,16.00
2018-10-16T15:32:46.187Z,16.00
2018-10-16T15:35:16.662Z,16.00
2018-10-16T15:37:46.905Z,15.90
2018-10-16T15:40:15.866Z,15.90
2018-10-16T15:42:46.191Z,15.90
2018-10-16T15:45:15.406Z,15.80
2018-10-16T15:47:44.545Z,15.80
2018-10-16T15:50:13.749Z,15.70
2018-10-16T15:52:43.764Z,15.60
2018-10-16T15:55:12.965Z,15.60
2018-10-16T15:57:42.298Z,15.60
2018-10-16T16:00:17.675Z,15.50
2018-10-16T16:02:47.566Z,15.50
2018-10-16T16:05:17.413Z,15.30
2018-10-16T16:07:47.321Z,15.30
2018-10-16T16:10:17.405Z,15.20
2018-10-16T16:12:49.475Z,15.20
2018-10-16T16:15:21.068Z,15.10
2018-10-16T16:17:54.348Z,15.00
2018-10-16T16:20:23.261Z,15.00
2018-10-16T16:22:52.224Z,14.90
2018-10-16T16:25:21.664Z,14.90
2018-10-16T16:27:51.277Z,14.90
2018-10-16T16:30:21.083Z,14.80
2018-10-16T16:32:53.294Z,14.80
2018-10-16T16:35:22.338Z,14.70
2018-10-16T16:37:56.650Z,14.70
2018-10-16T16:40:26.371Z,14.60
2018-10-16T16:42:55.288Z,14.60
2018-10-16T16:45:24.466Z,14.50
2018-10-16T16:47:54.165Z,14.50
2018-10-16T16:50:23.363Z,14.60
2018-10-16T16:52:53.167Z,14.50
2018-10-16T16:55:22.637Z,14.50
2018-10-16T16:57:51.635Z,14.40
2018-10-16T17:00:22.757Z,14.30
2018-10-16T17:02:53.220Z,14.30
2018-10-16T17:05:23.230Z,14.30
2018-10-16T17:07:53.807Z,14.20
2018-10-16T17:10:22.837Z,14.20
2018-10-16T17:12:54.283Z,14.20
2018-10-16T17:15:24.500Z,14.10
2018-10-16T17:17:56.167Z,14.10
2018-10-16T17:20:27.082Z,14.10
2018-10-16T17:22:57.389Z,14.20
2018-10-16T17:25:27.498Z,14.20
2018-10-16T17:28:07.824Z,14.10
2018-10-16T17:30:38.176Z,13.90
2018-10-16T17:33:07.204Z,13.80
2018-10-16T17:35:36.485Z,13.70
2018-10-16T17:38:06.111Z,13.50
2018-10-16T17:40:36.288Z,13.60
2018-10-16T17:43:06.176Z,13.60
2018-10-16T17:45:36.039Z,13.50
2018-10-16T17:48:05.271Z,13.50
2018-10-16T17:50:34.941Z,13.40
2018-10-16T17:53:06.769Z,13.30
2018-10-16T17:55:36.210Z,13.20
2018-10-16T17:58:06.327Z,13.20
2018-10-16T18:00:36.277Z,13.20
2018-10-16T18:03:05.267Z,13.30
2018-10-16T18:05:37.404Z,13.20
2018-10-16T18:08:06.578Z,13.30
2018-10-16T18:10:37.558Z,13.20
2018-10-16T18:13:15.325Z,13.10
2018-10-16T18:15:46.217Z,13.10
2018-10-16T18:18:17.164Z,13.10
2018-10-16T18:23:36.236Z,13.00
2018-10-16T18:26:09.101Z,12.90
2018-10-16T18:28:39.193Z,12.90
2018-10-16T18:31:10.253Z,12.90
2018-10-16T18:33:39.802Z,12.90
2018-10-16T18:36:11.670Z,13.00
2018-10-16T18:38:43.177Z,13.00
2018-10-16T18:41:12.392Z,12.90
2018-10-16T18:43:46.295Z,12.90
2018-10-16T18:46:27.839Z,12.80
2018-10-16T18:48:57.397Z,12.80
2018-10-16T18:51:32.199Z,12.80
2018-10-16T18:54:02.118Z,12.80
2018-10-16T18:56:31.175Z,12.80
2018-10-16T18:59:04.322Z,12.80
2018-10-16T19:01:40.860Z,12.80
2018-10-16T19:04:12.650Z,12.80
2018-10-16T19:06:45.267Z,12.80
2018-10-16T19:09:16.886Z,12.70
2018-10-16T19:11:47.673Z,12.70
2018-10-16T19:14:18.904Z,12.60
2018-10-16T19:16:55.010Z,12.50
2018-10-16T19:19:24.193Z,12.40
2018-10-16T19:21:54.226Z,12.30
2018-10-16T19:24:31.363Z,12.40
2018-10-16T19:27:01.199Z,12.50
2018-10-16T19:29:32.219Z,12.40
2018-10-16T19:34:36.353Z,12.50
2018-10-16T19:37:06.359Z,12.50
2018-10-16T19:39:35.473Z,12.40
2018-10-16T19:42:05.524Z,12.30
2018-10-16T19:44:36.293Z,12.30
2018-10-16T19:47:10.175Z,12.20
2018-10-16T19:49:39.411Z,12.20
2018-10-16T19:52:09.654Z,12.20
2018-10-16T19:54:39.165Z,12.20
2018-10-16T19:57:08.692Z,12.10
2018-10-16T19:59:41.146Z,12.20
2018-10-16T20:02:11.569Z,12.20
2018-10-16T20:04:42.810Z,12.10
2018-10-16T20:07:14.101Z,12.10
2018-10-16T20:09:45.233Z,12.10
2018-10-16T20:12:15.653Z,12.00
2018-10-16T20:14:44.725Z,11.90
2018-10-16T20:17:15.171Z,11.80
2018-10-16T20:19:44.360Z,11.80
2018-10-16T20:22:15.462Z,11.80
2018-10-16T20:24:47.749Z,11.80
2018-10-16T20:27:17.177Z,11.90
2018-10-16T20:29:54.201Z,11.90
2018-10-16T20:32:24.507Z,11.80
2018-10-16T20:40:18.058Z,11.80
2018-10-16T20:42:47.827Z,11.80
2018-10-16T20:45:18.815Z,11.80
2018-10-16T20:47:49.656Z,11.90
2018-10-16T20:50:21.794Z,11.90
2018-10-16T20:52:52.559Z,11.90
2018-10-16T20:55:22.183Z,11.80
2018-10-16T20:57:52.684Z,11.90
2018-10-16T21:00:22.424Z,11.70
2018-10-16T21:02:52.508Z,11.60
2018-10-16T21:05:24.574Z,11.50
2018-10-16T21:07:54.397Z,11.50
2018-10-16T21:10:23.601Z,11.60
2018-10-16T21:12:53.692Z,11.60
2018-10-16T21:15:24.317Z,11.60
2018-10-16T21:17:53.365Z,11.60
2018-10-16T21:20:23.055Z,11.60
2018-10-16T21:22:52.440Z,11.60
2018-10-16T21:25:24.664Z,11.60
2018-10-16T21:27:54.708Z,11.60
2018-10-16T21:30:25.611Z,11.60
2018-10-16T21:33:01.774Z,11.70
2018-10-16T21:35:32.404Z,11.70
2018-10-16T21:38:02.564Z,11.70
2018-10-16T21:40:34.238Z,11.60
2018-10-16T21:43:05.417Z,11.60
2018-10-16T21:45:35.134Z,11.50
2018-10-16T21:48:04.161Z,11.30
2018-10-16T21:50:33.742Z,11.20
2018-10-16T21:53:05.715Z,11.20
2018-10-16T21:55:34.667Z,11.40
2018-10-16T21:58:05.105Z,11.40
2018-10-16T22:00:40.168Z,11.40
2018-10-16T22:03:08.986Z,11.30
2018-10-16T22:05:39.205Z,11.40
2018-10-16T22:08:08.141Z,11.40
2018-10-16T22:10:38.599Z,11.40
2018-10-16T22:13:09.322Z,11.40
2018-10-16T22:15:38.205Z,11.30
2018-10-16T22:18:07.101Z,11.20
2018-10-16T22:20:35.923Z,11.10
2018-10-16T22:23:05.016Z,10.90
2018-10-16T22:25:33.781Z,10.90
2018-10-16T22:28:06.213Z,10.80
2018-10-16T22:30:35.176Z,10.90
2018-10-16T22:33:03.976Z,11.10
2018-10-16T22:35:32.761Z,11.20
2018-10-16T22:38:02.118Z,11.30
2018-10-16T22:40:31.715Z,11.30
2018-10-16T22:43:00.969Z,11.30
2018-10-16T22:45:29.777Z,11.20
2018-10-16T22:47:58.590Z,11.10
2018-10-16T22:50:27.373Z,11.00
2018-10-16T22:52:56.467Z,11.20
2018-10-16T22:55:25.256Z,11.30
2018-10-16T22:57:54.080Z,11.10
2018-10-16T23:00:23.944Z,11.10
2018-10-16T23:02:52.738Z,11.20
2018-10-16T23:05:21.503Z,11.10
2018-10-16T23:07:50.536Z,11.20
2018-10-16T23:10:19.285Z,11.20
2018-10-16T23:12:53.611Z,11.30
2018-10-16T23:15:22.513Z,11.30
2018-10-16T23:17:51.281Z,11.30
2018-10-16T23:20:20.134Z,11.30
2018-10-16T23:22:49.167Z,11.30
2018-10-16T23:25:18.077Z,11.30
2018-10-16T23:27:46.853Z,11.30
2018-10-16T23:30:15.669Z,11.30
2018-10-16T23:32:44.626Z,11.30
2018-10-16T23:35:13.392Z,11.30
2018-10-16T23:37:42.163Z,11.30
2018-10-16T23:40:11.013Z,11.30
2018-10-16T23:42:40.071Z,11.10
2018-10-16T23:45:08.889Z,11.00
2018-10-16T23:47:38.229Z,11.00
2018-10-16T23:50:07.008Z,10.90
2018-10-16T23:52:35.793Z,10.90
2018-10-16T23:55:05.177Z,10.80
2018-10-16T23:57:33.963Z,10.90
